sensor_id;sensor_type;location;lat;lon;timestamp;P1;durP1;ratioP1;P2;durP2;ratioP2
6378;SDS011;3222;48.858;10.128;2022-09-06T00:01:00;1.60;;;1.50;;
6378;SDS011;3222;48.858;10.128;2022-09-06T00:03:32;2.50;;;1.60;;
6378;SDS011;3222;48.858;10.128;2022-09-06T00:05:58;2.97;;;1.90;;
6378;SDS011;3222;48.858;10.128;2022-09-06T00:08:23;2.23;;;1.90;;
6378;SDS011;3222;48.858;10.128;2022-09-06T00:10:56;1.73;;;1.63;;
6378;SDS011;3222;48.858;10.128;2022-09-06T00:13:22;2.03;;;1.65;;
6378;SDS011;3222;48.858;10.128;2022-09-06T00:15:48;1.70;;;1.60;;
6378;SDS011;3222;48.858;10.128;2022-09-06T00:18:13;1.70;;;1.60;;
6378;SDS011;3222;48.858;10.128;2022-09-06T00:20:39;2.15;;;1.50;;
6378;SDS011;3222;48.858;10.128;2022-09-06T00:23:05;4.18;;;1.98;;
6378;SDS011;3222;48.858;10.128;2022-09-06T00:25:32;1.77;;;1.67;;
6378;SDS011;3222;48.858;10.128;2022-09-06T00:27:59;1.80;;;1.67;;
6378;SDS011;3222;48.858;10.128;2022-09-06T00:30:27;5.38;;;1.70;;
6378;SDS011;3222;48.858;10.128;2022-09-06T00:32:53;3.17;;;2.10;;
6378;SDS011;3222;48.858;10.128;2022-09-06T00:35:19;1.90;;;1.70;;
6378;SDS011;3222;48.858;10.128;2022-09-06T00:37:47;1.80;;;1.70;;
6378;SDS011;3222;48.858;10.128;2022-09-06T00:40:13;2.00;;;1.75;;
6378;SDS011;3222;48.858;10.128;2022-09-06T00:42:39;2.25;;;1.70;;
6378;SDS011;3222;48.858;10.128;2022-09-06T00:45:05;1.80;;;1.70;;
6378;SDS011;3222;48.858;10.128;2022-09-06T00:47:33;1.95;;;1.83;;
6378;SDS011;3222;48.858;10.128;2022-09-06T00:50:00;1.70;;;1.60;;
6378;SDS011;3222;48.858;10.128;2022-09-06T00:52:27;2.00;;;1.90;;
6378;SDS011;3222;48.858;10.128;2022-09-06T00:54:54;3.40;;;1.80;;
6378;SDS011;3222;48.858;10.128;2022-09-06T00:57:20;2.63;;;2.30;;
6378;SDS011;3222;48.858;10.128;2022-09-06T00:59:51;2.30;;;1.60;;
6378;SDS011;3222;48.858;10.128;2022-09-06T01:02:18;1.90;;;1.80;;
6378;SDS011;3222;48.858;10.128;2022-09-06T01:04:44;2.20;;;1.90;;
6378;SDS011;3222;48.858;10.128;2022-09-06T01:28:51;1.63;;;1.50;;
6378;SDS011;3222;48.858;10.128;2022-09-06T01:36:50;4.27;;;1.80;;
6378;SDS011;3222;48.858;10.128;2022-09-06T01:39:33;2.97;;;1.80;;
6378;SDS011;3222;48.858;10.128;2022-09-06T01:42:04;1.60;;;1.50;;
6378;SDS011;3222;48.858;10.128;2022-09-06T01:44:40;1.70;;;1.60;;
6378;SDS011;3222;48.858;10.128;2022-09-06T01:47:21;1.93;;;1.83;;
6378;SDS011;3222;48.858;10.128;2022-09-06T01:52:41;3.53;;;1.65;;
6378;SDS011;3222;48.858;10.128;2022-09-06T02:00:31;2.50;;;1.60;;
6378;SDS011;3222;48.858;10.128;2022-09-06T02:05:56;1.83;;;1.70;;
6378;SDS011;3222;48.858;10.128;2022-09-06T02:08:45;1.90;;;1.80;;
6378;SDS011;3222;48.858;10.128;2022-09-06T02:11:14;2.13;;;1.70;;
6378;SDS011;3222;48.858;10.128;2022-09-06T02:13:47;1.92;;;1.83;;
6378;SDS011;3222;48.858;10.128;2022-09-06T02:16:18;2.97;;;1.80;;
6378;SDS011;3222;48.858;10.128;2022-09-06T02:18:51;2.77;;;2.17;;
6378;SDS011;3222;48.858;10.128;2022-09-06T02:21:29;2.13;;;1.90;;
6378;SDS011;3222;48.858;10.128;2022-09-06T02:23:59;2.08;;;1.70;;
6378;SDS011;3222;48.858;10.128;2022-09-06T02:26:29;3.27;;;1.90;;
6378;SDS011;3222;48.858;10.128;2022-09-06T02:28:58;2.28;;;1.70;;
6378;SDS011;3222;48.858;10.128;2022-09-06T02:31:25;1.80;;;1.70;;
6378;SDS011;3222;48.858;10.128;2022-09-06T02:33:59;1.80;;;1.70;;
6378;SDS011;3222;48.858;10.128;2022-09-06T02:36:25;2.33;;;2.10;;
6378;SDS011;3222;48.858;10.128;2022-09-06T02:38:52;4.00;;;1.70;;
6378;SDS011;3222;48.858;10.128;2022-09-06T02:41:19;6.13;;;2.00;;
6378;SDS011;3222;48.858;10.128;2022-09-06T02:43:47;2.03;;;1.40;;
6378;SDS011;3222;48.858;10.128;2022-09-06T02:46:13;2.60;;;1.83;;
6378;SDS011;3222;48.858;10.128;2022-09-06T02:48:39;1.60;;;1.50;;
6378;SDS011;3222;48.858;10.128;2022-09-06T02:51:05;2.27;;;2.13;;
6378;SDS011;3222;48.858;10.128;2022-09-06T02:53:32;2.67;;;2.47;;
6378;SDS011;3222;48.858;10.128;2022-09-06T02:55:59;2.40;;;2.20;;
6378;SDS011;3222;48.858;10.128;2022-09-06T02:58:25;4.10;;;2.10;;
6378;SDS011;3222;48.858;10.128;2022-09-06T03:00:51;3.47;;;2.50;;
6378;SDS011;3222;48.858;10.128;2022-09-06T03:03:20;3.03;;;2.30;;
6378;SDS011;3222;48.858;10.128;2022-09-06T03:05:47;2.45;;;2.25;;
6378;SDS011;3222;48.858;10.128;2022-09-06T03:08:14;3.58;;;2.35;;
6378;SDS011;3222;48.858;10.128;2022-09-06T03:10:41;3.60;;;2.00;;
6378;SDS011;3222;48.858;10.128;2022-09-06T03:13:12;2.00;;;1.90;;
6378;SDS011;3222;48.858;10.128;2022-09-06T03:15:38;2.73;;;2.50;;
6378;SDS011;3222;48.858;10.128;2022-09-06T03:18:03;2.43;;;2.23;;
6378;SDS011;3222;48.858;10.128;2022-09-06T03:20:29;2.30;;;2.10;;
6378;SDS011;3222;48.858;10.128;2022-09-06T03:22:55;3.63;;;2.47;;
6378;SDS011;3222;48.858;10.128;2022-09-06T03:25:20;2.30;;;2.10;;
6378;SDS011;3222;48.858;10.128;2022-09-06T03:27:46;8.30;;;2.20;;
6378;SDS011;3222;48.858;10.128;2022-09-06T03:30:12;3.17;;;2.60;;
6378;SDS011;3222;48.858;10.128;2022-09-06T03:32:38;4.97;;;2.63;;
6378;SDS011;3222;48.858;10.128;2022-09-06T03:35:03;2.78;;;2.28;;
6378;SDS011;3222;48.858;10.128;2022-09-06T03:37:29;4.27;;;3.13;;
6378;SDS011;3222;48.858;10.128;2022-09-06T03:39:55;4.63;;;2.10;;
6378;SDS011;3222;48.858;10.128;2022-09-06T03:42:21;2.70;;;2.40;;
6378;SDS011;3222;48.858;10.128;2022-09-06T03:44:47;2.97;;;2.17;;
6378;SDS011;3222;48.858;10.128;2022-09-06T03:47:12;2.70;;;2.50;;
6378;SDS011;3222;48.858;10.128;2022-09-06T03:49:38;4.18;;;2.97;;
6378;SDS011;3222;48.858;10.128;2022-09-06T03:52:04;3.00;;;2.60;;
6378;SDS011;3222;48.858;10.128;2022-09-06T03:54:30;4.93;;;2.73;;
6378;SDS011;3222;48.858;10.128;2022-09-06T03:56:55;3.20;;;2.57;;
6378;SDS011;3222;48.858;10.128;2022-09-06T03:59:21;3.13;;;2.50;;
6378;SDS011;3222;48.858;10.128;2022-09-06T04:01:47;3.63;;;2.70;;
6378;SDS011;3222;48.858;10.128;2022-09-06T04:04:12;2.67;;;2.47;;
6378;SDS011;3222;48.858;10.128;2022-09-06T04:06:38;2.97;;;2.67;;
6378;SDS011;3222;48.858;10.128;2022-09-06T04:09:04;3.20;;;2.10;;
6378;SDS011;3222;48.858;10.128;2022-09-06T04:11:29;2.40;;;2.20;;
6378;SDS011;3222;48.858;10.128;2022-09-06T04:13:55;2.97;;;2.60;;
6378;SDS011;3222;48.858;10.128;2022-09-06T04:16:21;2.47;;;2.07;;
6378;SDS011;3222;48.858;10.128;2022-09-06T04:18:46;2.88;;;2.67;;
6378;SDS011;3222;48.858;10.128;2022-09-06T04:21:12;2.60;;;2.40;;
6378;SDS011;3222;48.858;10.128;2022-09-06T04:23:38;4.70;;;2.60;;
6378;SDS011;3222;48.858;10.128;2022-09-06T04:26:04;2.80;;;2.58;;
6378;SDS011;3222;48.858;10.128;2022-09-06T04:28:30;2.60;;;2.38;;
6378;SDS011;3222;48.858;10.128;2022-09-06T04:31:00;2.43;;;2.23;;
6378;SDS011;3222;48.858;10.128;2022-09-06T04:33:28;4.80;;;2.35;;
6378;SDS011;3222;48.858;10.128;2022-09-06T04:35:56;4.23;;;2.37;;
6378;SDS011;3222;48.858;10.128;2022-09-06T04:38:23;3.17;;;2.03;;
6378;SDS011;3222;48.858;10.128;2022-09-06T04:40:50;3.10;;;1.90;;
6378;SDS011;3222;48.858;10.128;2022-09-06T04:43:16;2.20;;;2.00;;
6378;SDS011;3222;48.858;10.128;2022-09-06T04:45:42;2.70;;;1.83;;
6378;SDS011;3222;48.858;10.128;2022-09-06T04:48:08;2.33;;;2.23;;
6378;SDS011;3222;48.858;10.128;2022-09-06T04:50:34;2.90;;;2.10;;
6378;SDS011;3222;48.858;10.128;2022-09-06T04:53:04;2.93;;;2.23;;
6378;SDS011;3222;48.858;10.128;2022-09-06T04:55:30;2.00;;;1.90;;
6378;SDS011;3222;48.858;10.128;2022-09-06T04:57:57;3.20;;;2.33;;
6378;SDS011;3222;48.858;10.128;2022-09-06T05:00:28;2.60;;;2.00;;
6378;SDS011;3222;48.858;10.128;2022-09-06T05:02:55;2.40;;;2.17;;
6378;SDS011;3222;48.858;10.128;2022-09-06T05:05:22;2.10;;;1.90;;
6378;SDS011;3222;48.858;10.128;2022-09-06T05:07:51;4.93;;;1.90;;
6378;SDS011;3222;48.858;10.128;2022-09-06T05:10:17;2.97;;;2.17;;
6378;SDS011;3222;48.858;10.128;2022-09-06T05:12:46;2.00;;;1.90;;
6378;SDS011;3222;48.858;10.128;2022-09-06T05:15:16;1.97;;;1.67;;
6378;SDS011;3222;48.858;10.128;2022-09-06T05:17:42;3.10;;;1.90;;
6378;SDS011;3222;48.858;10.128;2022-09-06T05:20:08;1.83;;;1.73;;
6378;SDS011;3222;48.858;10.128;2022-09-06T05:22:35;2.30;;;2.07;;
6378;SDS011;3222;48.858;10.128;2022-09-06T05:25:01;2.10;;;2.00;;
6378;SDS011;3222;48.858;10.128;2022-09-06T05:27:26;2.70;;;2.00;;
6378;SDS011;3222;48.858;10.128;2022-09-06T05:29:52;1.70;;;1.60;;
6378;SDS011;3222;48.858;10.128;2022-09-06T05:32:18;2.10;;;1.90;;
6378;SDS011;3222;48.858;10.128;2022-09-06T05:34:43;4.30;;;2.17;;
6378;SDS011;3222;48.858;10.128;2022-09-06T05:37:09;1.87;;;1.70;;
6378;SDS011;3222;48.858;10.128;2022-09-06T05:39:35;3.43;;;1.90;;
6378;SDS011;3222;48.858;10.128;2022-09-06T05:42:00;2.63;;;2.10;;
6378;SDS011;3222;48.858;10.128;2022-09-06T05:44:31;7.57;;;2.00;;
6378;SDS011;3222;48.858;10.128;2022-09-06T05:46:58;2.17;;;2.00;;
6378;SDS011;3222;48.858;10.128;2022-09-06T05:49:23;2.17;;;1.97;;
6378;SDS011;3222;48.858;10.128;2022-09-06T05:51:49;2.23;;;2.10;;
6378;SDS011;3222;48.858;10.128;2022-09-06T05:54:16;4.50;;;2.00;;
6378;SDS011;3222;48.858;10.128;2022-09-06T05:56:41;2.10;;;1.93;;
6378;SDS011;3222;48.858;10.128;2022-09-06T05:59:07;2.17;;;2.00;;
6378;SDS011;3222;48.858;10.128;2022-09-06T06:01:33;4.23;;;2.30;;
6378;SDS011;3222;48.858;10.128;2022-09-06T06:03:59;4.83;;;2.20;;
6378;SDS011;3222;48.858;10.128;2022-09-06T06:06:30;2.93;;;2.00;;
6378;SDS011;3222;48.858;10.128;2022-09-06T06:08:57;1.90;;;1.80;;
6378;SDS011;3222;48.858;10.128;2022-09-06T06:11:23;2.40;;;1.93;;
6378;SDS011;3222;48.858;10.128;2022-09-06T06:13:50;2.17;;;1.97;;
6378;SDS011;3222;48.858;10.128;2022-09-06T06:16:17;1.67;;;1.60;;
6378;SDS011;3222;48.858;10.128;2022-09-06T06:18:44;2.30;;;1.73;;
6378;SDS011;3222;48.858;10.128;2022-09-06T06:21:14;3.13;;;2.27;;
6378;SDS011;3222;48.858;10.128;2022-09-06T06:23:41;3.73;;;2.00;;
6378;SDS011;3222;48.858;10.128;2022-09-06T06:26:08;3.23;;;1.80;;
6378;SDS011;3222;48.858;10.128;2022-09-06T06:28:35;3.30;;;1.90;;
6378;SDS011;3222;48.858;10.128;2022-09-06T06:31:02;2.17;;;1.60;;
6378;SDS011;3222;48.858;10.128;2022-09-06T06:33:28;1.97;;;1.60;;
6378;SDS011;3222;48.858;10.128;2022-09-06T06:38:30;1.70;;;1.40;;
6378;SDS011;3222;48.858;10.128;2022-09-06T06:40:57;1.53;;;1.27;;
6378;SDS011;3222;48.858;10.128;2022-09-06T06:43:23;1.50;;;1.40;;
6378;SDS011;3222;48.858;10.128;2022-09-06T06:45:49;1.90;;;1.80;;
6378;SDS011;3222;48.858;10.128;2022-09-06T06:48:15;1.70;;;1.60;;
6378;SDS011;3222;48.858;10.128;2022-09-06T06:50:41;1.83;;;1.73;;
6378;SDS011;3222;48.858;10.128;2022-09-06T06:53:07;2.00;;;1.80;;
6378;SDS011;3222;48.858;10.128;2022-09-06T06:55:32;2.87;;;2.50;;
6378;SDS011;3222;48.858;10.128;2022-09-06T06:57:58;3.57;;;2.10;;
6378;SDS011;3222;48.858;10.128;2022-09-06T07:00:24;4.07;;;2.43;;
6378;SDS011;3222;48.858;10.128;2022-09-06T07:02:50;3.17;;;2.47;;
6378;SDS011;3222;48.858;10.128;2022-09-06T07:05:17;3.47;;;2.00;;
6378;SDS011;3222;48.858;10.128;2022-09-06T07:07:43;4.57;;;2.00;;
6378;SDS011;3222;48.858;10.128;2022-09-06T07:10:09;2.37;;;1.90;;
6378;SDS011;3222;48.858;10.128;2022-09-06T07:12:35;2.03;;;1.80;;
6378;SDS011;3222;48.858;10.128;2022-09-06T07:15:01;2.10;;;1.90;;
6378;SDS011;3222;48.858;10.128;2022-09-06T07:17:27;2.60;;;2.40;;
6378;SDS011;3222;48.858;10.128;2022-09-06T07:19:53;2.93;;;2.20;;
6378;SDS011;3222;48.858;10.128;2022-09-06T07:22:19;2.90;;;1.97;;
6378;SDS011;3222;48.858;10.128;2022-09-06T07:24:44;2.20;;;2.00;;
6378;SDS011;3222;48.858;10.128;2022-09-06T07:27:10;3.80;;;1.67;;
6378;SDS011;3222;48.858;10.128;2022-09-06T07:29:36;3.37;;;1.97;;
6378;SDS011;3222;48.858;10.128;2022-09-06T07:32:01;1.57;;;1.47;;
6378;SDS011;3222;48.858;10.128;2022-09-06T07:34:27;3.13;;;1.77;;
6378;SDS011;3222;48.858;10.128;2022-09-06T07:36:54;2.92;;;1.80;;
6378;SDS011;3222;48.858;10.128;2022-09-06T07:39:20;1.57;;;1.47;;
6378;SDS011;3222;48.858;10.128;2022-09-06T07:41:46;2.00;;;1.70;;
6378;SDS011;3222;48.858;10.128;2022-09-06T07:44:12;1.63;;;1.53;;
6378;SDS011;3222;48.858;10.128;2022-09-06T07:46:37;2.27;;;1.70;;
6378;SDS011;3222;48.858;10.128;2022-09-06T07:49:03;2.37;;;1.73;;
6378;SDS011;3222;48.858;10.128;2022-09-06T07:51:30;1.90;;;1.80;;
6378;SDS011;3222;48.858;10.128;2022-09-06T07:53:56;2.07;;;1.67;;
6378;SDS011;3222;48.858;10.128;2022-09-06T07:56:22;1.90;;;1.80;;
6378;SDS011;3222;48.858;10.128;2022-09-06T07:58:49;1.93;;;1.73;;
6378;SDS011;3222;48.858;10.128;2022-09-06T08:03:51;1.90;;;1.80;;
6378;SDS011;3222;48.858;10.128;2022-09-06T08:06:18;1.87;;;1.70;;
6378;SDS011;3222;48.858;10.128;2022-09-06T08:08:45;1.97;;;1.70;;
6378;SDS011;3222;48.858;10.128;2022-09-06T08:11:10;2.43;;;2.00;;
6378;SDS011;3222;48.858;10.128;2022-09-06T08:13:36;2.00;;;1.90;;
6378;SDS011;3222;48.858;10.128;2022-09-06T08:16:04;2.20;;;1.70;;
6378;SDS011;3222;48.858;10.128;2022-09-06T08:18:31;2.50;;;2.30;;
6378;SDS011;3222;48.858;10.128;2022-09-06T08:21:07;2.10;;;1.90;;
6378;SDS011;3222;48.858;10.128;2022-09-06T08:23:37;2.63;;;2.07;;
6378;SDS011;3222;48.858;10.128;2022-09-06T08:26:11;3.15;;;2.22;;
6378;SDS011;3222;48.858;10.128;2022-09-06T08:28:36;3.93;;;2.30;;
6378;SDS011;3222;48.858;10.128;2022-09-06T08:31:09;2.40;;;2.20;;
6378;SDS011;3222;48.858;10.128;2022-09-06T08:33:37;2.30;;;2.10;;
6378;SDS011;3222;48.858;10.128;2022-09-06T08:36:04;3.53;;;2.40;;
6378;SDS011;3222;48.858;10.128;2022-09-06T08:38:30;3.57;;;2.40;;
6378;SDS011;3222;48.858;10.128;2022-09-06T08:41:10;2.83;;;2.43;;
6378;SDS011;3222;48.858;10.128;2022-09-06T08:43:47;4.53;;;2.80;;
6378;SDS011;3222;48.858;10.128;2022-09-06T08:46:19;5.43;;;2.60;;
6378;SDS011;3222;48.858;10.128;2022-09-06T08:49:01;4.10;;;2.43;;
6378;SDS011;3222;48.858;10.128;2022-09-06T08:51:41;2.63;;;2.43;;
6378;SDS011;3222;48.858;10.128;2022-09-06T08:57:39;3.33;;;2.80;;
6378;SDS011;3222;48.858;10.128;2022-09-06T09:00:10;2.97;;;2.43;;
6378;SDS011;3222;48.858;10.128;2022-09-06T09:02:44;4.10;;;2.37;;
6378;SDS011;3222;48.858;10.128;2022-09-06T09:05:23;4.23;;;2.33;;
6378;SDS011;3222;48.858;10.128;2022-09-06T09:11:08;3.30;;;2.70;;
6378;SDS011;3222;48.858;10.128;2022-09-06T09:13:43;3.63;;;2.50;;
6378;SDS011;3222;48.858;10.128;2022-09-06T09:16:16;4.50;;;2.40;;
6378;SDS011;3222;48.858;10.128;2022-09-06T09:18:44;2.57;;;2.37;;
6378;SDS011;3222;48.858;10.128;2022-09-06T09:21:13;4.70;;;2.40;;
6378;SDS011;3222;48.858;10.128;2022-09-06T09:23:42;5.03;;;2.93;;
6378;SDS011;3222;48.858;10.128;2022-09-06T09:26:12;2.87;;;2.30;;
6378;SDS011;3222;48.858;10.128;2022-09-06T09:29:00;2.87;;;2.57;;
6378;SDS011;3222;48.858;10.128;2022-09-06T09:31:32;3.47;;;2.57;;
6378;SDS011;3222;48.858;10.128;2022-09-06T09:34:09;4.17;;;2.53;;
6378;SDS011;3222;48.858;10.128;2022-09-06T09:39:51;2.63;;;2.43;;
6378;SDS011;3222;48.858;10.128;2022-09-06T09:45:29;2.95;;;2.67;;
6378;SDS011;3222;48.858;10.128;2022-09-06T09:47:55;4.60;;;2.95;;
6378;SDS011;3222;48.858;10.128;2022-09-06T09:50:39;4.50;;;2.85;;
6378;SDS011;3222;48.858;10.128;2022-09-06T09:53:08;2.80;;;2.60;;
6378;SDS011;3222;48.858;10.128;2022-09-06T09:55:35;3.33;;;2.90;;
6378;SDS011;3222;48.858;10.128;2022-09-06T09:58:02;3.10;;;2.55;;
6378;SDS011;3222;48.858;10.128;2022-09-06T10:03:14;3.85;;;2.33;;
6378;SDS011;3222;48.858;10.128;2022-09-06T10:05:41;4.85;;;2.88;;
6378;SDS011;3222;48.858;10.128;2022-09-06T10:08:18;3.30;;;2.17;;
6378;SDS011;3222;48.858;10.128;2022-09-06T10:10:48;3.63;;;2.40;;
6378;SDS011;3222;48.858;10.128;2022-09-06T10:13:21;5.03;;;2.60;;
6378;SDS011;3222;48.858;10.128;2022-09-06T10:15:53;3.72;;;2.33;;
6378;SDS011;3222;48.858;10.128;2022-09-06T10:18:37;3.17;;;2.40;;
6378;SDS011;3222;48.858;10.128;2022-09-06T10:21:16;5.05;;;2.78;;
6378;SDS011;3222;48.858;10.128;2022-09-06T10:26:46;6.90;;;2.70;;
6378;SDS011;3222;48.858;10.128;2022-09-06T10:29:18;7.80;;;2.70;;
6378;SDS011;3222;48.858;10.128;2022-09-06T10:32:08;3.83;;;2.33;;
6378;SDS011;3222;48.858;10.128;2022-09-06T10:34:43;3.75;;;2.45;;
6378;SDS011;3222;48.858;10.128;2022-09-06T10:43:26;2.75;;;2.55;;
6378;SDS011;3222;48.858;10.128;2022-09-06T10:45:58;6.00;;;2.75;;
6378;SDS011;3222;48.858;10.128;2022-09-06T10:51:00;3.88;;;2.60;;
6378;SDS011;3222;48.858;10.128;2022-09-06T10:56:21;4.82;;;2.40;;
6378;SDS011;3222;48.858;10.128;2022-09-06T10:59:12;6.32;;;3.03;;
6378;SDS011;3222;48.858;10.128;2022-09-06T11:04:50;3.25;;;2.30;;
6378;SDS011;3222;48.858;10.128;2022-09-06T11:07:24;2.58;;;2.28;;
6378;SDS011;3222;48.858;10.128;2022-09-06T11:09:58;5.70;;;2.40;;
6378;SDS011;3222;48.858;10.128;2022-09-06T11:12:40;4.57;;;2.20;;
6378;SDS011;3222;48.858;10.128;2022-09-06T11:15:11;2.90;;;1.63;;
6378;SDS011;3222;48.858;10.128;2022-09-06T11:28:26;2.67;;;1.67;;
6378;SDS011;3222;48.858;10.128;2022-09-06T11:31:03;6.35;;;2.20;;
6378;SDS011;3222;48.858;10.128;2022-09-06T11:33:30;2.10;;;1.85;;
6378;SDS011;3222;48.858;10.128;2022-09-06T11:38:57;5.80;;;1.80;;
6378;SDS011;3222;48.858;10.128;2022-09-06T11:41:32;7.03;;;2.33;;
6378;SDS011;3222;48.858;10.128;2022-09-06T11:44:00;6.07;;;2.15;;
6378;SDS011;3222;48.858;10.128;2022-09-06T11:49:02;5.35;;;2.05;;
6378;SDS011;3222;48.858;10.128;2022-09-06T11:51:39;4.65;;;1.67;;
6378;SDS011;3222;48.858;10.128;2022-09-06T11:56:41;3.53;;;2.15;;
6378;SDS011;3222;48.858;10.128;2022-09-06T12:07:26;3.83;;;1.70;;
6378;SDS011;3222;48.858;10.128;2022-09-06T12:09:53;3.00;;;2.00;;
6378;SDS011;3222;48.858;10.128;2022-09-06T12:17:48;3.17;;;2.08;;
6378;SDS011;3222;48.858;10.128;2022-09-06T12:28:33;2.70;;;1.85;;
6378;SDS011;3222;48.858;10.128;2022-09-06T12:31:18;3.47;;;1.88;;
6378;SDS011;3222;48.858;10.128;2022-09-06T12:33:46;3.40;;;1.95;;
6378;SDS011;3222;48.858;10.128;2022-09-06T12:38:53;4.40;;;2.00;;
6378;SDS011;3222;48.858;10.128;2022-09-06T12:41:24;5.43;;;2.17;;
6378;SDS011;3222;48.858;10.128;2022-09-06T12:43:52;3.35;;;1.73;;
6378;SDS011;3222;48.858;10.128;2022-09-06T12:46:20;4.30;;;2.08;;
6378;SDS011;3222;48.858;10.128;2022-09-06T12:49:08;8.88;;;1.95;;
6378;SDS011;3222;48.858;10.128;2022-09-06T12:51:36;3.97;;;1.77;;
6378;SDS011;3222;48.858;10.128;2022-09-06T12:54:04;4.00;;;1.77;;
6378;SDS011;3222;48.858;10.128;2022-09-06T12:57:10;3.30;;;1.83;;
6378;SDS011;3222;48.858;10.128;2022-09-06T12:59:52;4.90;;;1.80;;
6378;SDS011;3222;48.858;10.128;2022-09-06T13:02:24;5.80;;;1.80;;
6378;SDS011;3222;48.858;10.128;2022-09-06T13:04:59;6.30;;;1.95;;
6378;SDS011;3222;48.858;10.128;2022-09-06T13:07:29;3.42;;;1.40;;
6378;SDS011;3222;48.858;10.128;2022-09-06T13:09:58;3.63;;;1.42;;
6378;SDS011;3222;48.858;10.128;2022-09-06T13:12:34;4.03;;;1.77;;
6378;SDS011;3222;48.858;10.128;2022-09-06T13:15:13;5.50;;;1.55;;
6378;SDS011;3222;48.858;10.128;2022-09-06T13:17:43;2.47;;;1.70;;
6378;SDS011;3222;48.858;10.128;2022-09-06T13:20:10;2.22;;;1.70;;
6378;SDS011;3222;48.858;10.128;2022-09-06T13:22:48;5.45;;;1.85;;
6378;SDS011;3222;48.858;10.128;2022-09-06T13:27:44;3.03;;;1.98;;
6378;SDS011;3222;48.858;10.128;2022-09-06T13:30:34;4.18;;;2.05;;
6378;SDS011;3222;48.858;10.128;2022-09-06T13:33:22;5.25;;;1.60;;
6378;SDS011;3222;48.858;10.128;2022-09-06T13:35:51;4.35;;;1.95;;
6378;SDS011;3222;48.858;10.128;2022-09-06T13:38:38;4.85;;;1.90;;
6378;SDS011;3222;48.858;10.128;2022-09-06T13:41:10;3.00;;;1.77;;
6378;SDS011;3222;48.858;10.128;2022-09-06T13:46:35;3.83;;;1.70;;
6378;SDS011;3222;48.858;10.128;2022-09-06T13:49:01;4.75;;;2.42;;
6378;SDS011;3222;48.858;10.128;2022-09-06T13:51:27;7.65;;;2.10;;
6378;SDS011;3222;48.858;10.128;2022-09-06T13:54:06;3.10;;;1.60;;
6378;SDS011;3222;48.858;10.128;2022-09-06T13:56:34;4.00;;;1.63;;
6378;SDS011;3222;48.858;10.128;2022-09-06T13:59:01;4.97;;;1.67;;
6378;SDS011;3222;48.858;10.128;2022-09-06T14:01:27;1.73;;;1.63;;
6378;SDS011;3222;48.858;10.128;2022-09-06T14:03:53;3.20;;;1.58;;
6378;SDS011;3222;48.858;10.128;2022-09-06T14:06:19;2.70;;;1.60;;
6378;SDS011;3222;48.858;10.128;2022-09-06T14:08:45;2.28;;;1.65;;
6378;SDS011;3222;48.858;10.128;2022-09-06T14:11:11;2.72;;;1.88;;
6378;SDS011;3222;48.858;10.128;2022-09-06T14:13:38;2.17;;;1.80;;
6378;SDS011;3222;48.858;10.128;2022-09-06T14:16:04;3.28;;;1.95;;
6378;SDS011;3222;48.858;10.128;2022-09-06T14:18:30;4.50;;;1.98;;
6378;SDS011;3222;48.858;10.128;2022-09-06T14:20:56;3.00;;;1.55;;
6378;SDS011;3222;48.858;10.128;2022-09-06T14:23:23;2.17;;;1.60;;
6378;SDS011;3222;48.858;10.128;2022-09-06T14:25:59;5.72;;;1.95;;
6378;SDS011;3222;48.858;10.128;2022-09-06T14:28:26;4.38;;;1.38;;
6378;SDS011;3222;48.858;10.128;2022-09-06T14:30:52;3.28;;;1.83;;
6378;SDS011;3222;48.858;10.128;2022-09-06T14:33:19;3.22;;;1.38;;
6378;SDS011;3222;48.858;10.128;2022-09-06T14:35:45;6.72;;;1.60;;
6378;SDS011;3222;48.858;10.128;2022-09-06T14:38:11;5.25;;;1.70;;
6378;SDS011;3222;48.858;10.128;2022-09-06T14:40:37;4.50;;;1.80;;
6378;SDS011;3222;48.858;10.128;2022-09-06T14:43:04;2.20;;;1.50;;
6378;SDS011;3222;48.858;10.128;2022-09-06T14:45:34;3.90;;;1.50;;
6378;SDS011;3222;48.858;10.128;2022-09-06T14:48:00;3.47;;;1.50;;
6378;SDS011;3222;48.858;10.128;2022-09-06T14:50:26;2.60;;;1.65;;
6378;SDS011;3222;48.858;10.128;2022-09-06T14:52:52;3.40;;;1.70;;
6378;SDS011;3222;48.858;10.128;2022-09-06T14:55:18;1.95;;;1.50;;
6378;SDS011;3222;48.858;10.128;2022-09-06T14:57:45;4.95;;;1.55;;
6378;SDS011;3222;48.858;10.128;2022-09-06T15:00:11;3.55;;;1.63;;
6378;SDS011;3222;48.858;10.128;2022-09-06T15:02:37;6.53;;;1.90;;
6378;SDS011;3222;48.858;10.128;2022-09-06T15:05:03;5.00;;;1.90;;
6378;SDS011;3222;48.858;10.128;2022-09-06T15:07:29;4.10;;;2.03;;
6378;SDS011;3222;48.858;10.128;2022-09-06T15:09:56;4.22;;;1.55;;
6378;SDS011;3222;48.858;10.128;2022-09-06T15:12:21;2.95;;;1.60;;
6378;SDS011;3222;48.858;10.128;2022-09-06T15:14:47;6.40;;;1.55;;
6378;SDS011;3222;48.858;10.128;2022-09-06T15:17:13;3.15;;;1.60;;
6378;SDS011;3222;48.858;10.128;2022-09-06T15:19:39;4.72;;;1.98;;
6378;SDS011;3222;48.858;10.128;2022-09-06T15:22:05;3.33;;;1.50;;
6378;SDS011;3222;48.858;10.128;2022-09-06T15:24:31;2.50;;;1.38;;
6378;SDS011;3222;48.858;10.128;2022-09-06T15:26:57;2.25;;;1.60;;
6378;SDS011;3222;48.858;10.128;2022-09-06T15:29:23;2.58;;;1.50;;
6378;SDS011;3222;48.858;10.128;2022-09-06T15:31:51;2.88;;;1.33;;
6378;SDS011;3222;48.858;10.128;2022-09-06T15:34:19;3.75;;;1.35;;
6378;SDS011;3222;48.858;10.128;2022-09-06T15:36:46;4.18;;;1.30;;
6378;SDS011;3222;48.858;10.128;2022-09-06T15:39:12;4.60;;;1.98;;
6378;SDS011;3222;48.858;10.128;2022-09-06T15:41:38;4.75;;;1.40;;
6378;SDS011;3222;48.858;10.128;2022-09-06T15:44:12;3.05;;;1.55;;
6378;SDS011;3222;48.858;10.128;2022-09-06T15:49:18;2.08;;;1.42;;
6378;SDS011;3222;48.858;10.128;2022-09-06T15:51:46;2.03;;;1.30;;
6378;SDS011;3222;48.858;10.128;2022-09-06T15:54:13;3.63;;;1.60;;
6378;SDS011;3222;48.858;10.128;2022-09-06T15:56:40;2.78;;;1.30;;
6378;SDS011;3222;48.858;10.128;2022-09-06T15:59:06;4.13;;;1.77;;
6378;SDS011;3222;48.858;10.128;2022-09-06T16:01:32;2.40;;;1.50;;
6378;SDS011;3222;48.858;10.128;2022-09-06T16:03:59;2.65;;;1.80;;
6378;SDS011;3222;48.858;10.128;2022-09-06T16:06:34;2.58;;;1.60;;
6378;SDS011;3222;48.858;10.128;2022-09-06T16:09:03;3.10;;;1.40;;
6378;SDS011;3222;48.858;10.128;2022-09-06T16:11:34;5.13;;;1.52;;
6378;SDS011;3222;48.858;10.128;2022-09-06T16:14:04;2.45;;;1.40;;
6378;SDS011;3222;48.858;10.128;2022-09-06T16:16:32;2.63;;;1.30;;
6378;SDS011;3222;48.858;10.128;2022-09-06T16:18:59;2.72;;;1.50;;
6378;SDS011;3222;48.858;10.128;2022-09-06T16:21:26;2.40;;;1.83;;
6378;SDS011;3222;48.858;10.128;2022-09-06T16:23:58;2.33;;;1.60;;
6378;SDS011;3222;48.858;10.128;2022-09-06T16:26:26;1.83;;;1.45;;
6378;SDS011;3222;48.858;10.128;2022-09-06T16:28:53;2.53;;;1.30;;
6378;SDS011;3222;48.858;10.128;2022-09-06T16:31:20;5.22;;;1.70;;
6378;SDS011;3222;48.858;10.128;2022-09-06T16:33:46;2.17;;;1.50;;
6378;SDS011;3222;48.858;10.128;2022-09-06T16:36:13;7.72;;;1.63;;
6378;SDS011;3222;48.858;10.128;2022-09-06T16:38:39;1.40;;;1.30;;
6378;SDS011;3222;48.858;10.128;2022-09-06T16:41:16;3.78;;;1.70;;
6378;SDS011;3222;48.858;10.128;2022-09-06T16:43:55;2.13;;;1.42;;
6378;SDS011;3222;48.858;10.128;2022-09-06T16:46:21;3.15;;;1.83;;
6378;SDS011;3222;48.858;10.128;2022-09-06T16:48:49;5.35;;;2.00;;
6378;SDS011;3222;48.858;10.128;2022-09-06T16:51:25;5.18;;;2.00;;
6378;SDS011;3222;48.858;10.128;2022-09-06T16:53:51;2.10;;;1.45;;
6378;SDS011;3222;48.858;10.128;2022-09-06T16:56:19;3.40;;;1.27;;
6378;SDS011;3222;48.858;10.128;2022-09-06T16:58:50;2.53;;;1.30;;
6378;SDS011;3222;48.858;10.128;2022-09-06T17:01:20;3.28;;;1.40;;
6378;SDS011;3222;48.858;10.128;2022-09-06T17:03:47;3.50;;;1.58;;
6378;SDS011;3222;48.858;10.128;2022-09-06T17:06:13;2.33;;;1.50;;
6378;SDS011;3222;48.858;10.128;2022-09-06T17:08:39;4.30;;;2.15;;
6378;SDS011;3222;48.858;10.128;2022-09-06T17:11:07;2.92;;;1.70;;
6378;SDS011;3222;48.858;10.128;2022-09-06T17:13:39;3.47;;;1.83;;
6378;SDS011;3222;48.858;10.128;2022-09-06T17:16:05;8.00;;;1.80;;
6378;SDS011;3222;48.858;10.128;2022-09-06T17:18:50;2.22;;;1.50;;